Portada
METAR-TAF:

METAR-TAF

Aeroports :

Albertus Airport

Freeport, Illinois, Estats Units d'Amèrica

latitud: 42-14-47N, longitud: 089-34-56W, altitud: 262 m

Observació

L'informe es va fer fa 30 minuts, a les 00:15 UTC
Vent 8 kt del Est/Nord-Est
Temperatura 23°C
Humitat 83%
Pressió 1013 hPa
Visibilitat: 16.1 km
Núvols disperses a una alçada de 4800 ft
Núvols disperses a una alçada de 8000 ft
Cel ennuvolat a una alçada de 9000 ft
tempesta a les proximitats

METAR: KFEP 280015Z AUTO 07008KT 10SM VCTS SCT048 SCT080 BKN090 23/20 A2991 RMK AO2 LTG DSNT N T02250204

Hora: 19:45 (00:45 UTC)


TAF: manca

Observacions i pronòstics meteorològics de més de 4000 aeroports (METAR i TAF).

Les estacions disponibles són els punts grocs i vermells al mapa.

Posi el ratolí al punt desitjat per veure el nom de l'estació.

Feu clic per veure les observacions i els pronòstics meteorològics.

Per canviar el mapa: feu clic els botons verds amb una creu de color negre per apropar; al botó verd amb un guió per allunyar la imatge; o en les fletxes verdes per a mapes adjacents.


METAR-TAF: